sensor_id;sensor_type;location;lat;lon;timestamp;temperature;humidity
64817;DHT22;69411;45.656;11.740;2024-01-30T00:00:21;2.40;74.00
64817;DHT22;69411;45.656;11.740;2024-01-30T00:02:47;2.40;73.30
64817;DHT22;69411;45.656;11.740;2024-01-30T00:05:13;2.30;72.50
64817;DHT22;69411;45.656;11.740;2024-01-30T00:07:39;2.20;72.80
64817;DHT22;69411;45.656;11.740;2024-01-30T00:10:05;2.10;73.30
64817;DHT22;69411;45.656;11.740;2024-01-30T00:12:31;2.10;73.30
64817;DHT22;69411;45.656;11.740;2024-01-30T00:14:57;2.00;73.40
64817;DHT22;69411;45.656;11.740;2024-01-30T00:17:23;2.00;73.70
64817;DHT22;69411;45.656;11.740;2024-01-30T00:19:50;2.00;73.70
64817;DHT22;69411;45.656;11.740;2024-01-30T00:22:16;2.00;73.80
64817;DHT22;69411;45.656;11.740;2024-01-30T00:24:42;2.00;74.00
64817;DHT22;69411;45.656;11.740;2024-01-30T00:27:08;1.90;74.00
64817;DHT22;69411;45.656;11.740;2024-01-30T00:29:34;1.90;73.80
64817;DHT22;69411;45.656;11.740;2024-01-30T00:32:00;1.90;74.30
64817;DHT22;69411;45.656;11.740;2024-01-30T00:34:26;1.90;74.50
64817;DHT22;69411;45.656;11.740;2024-01-30T00:36:52;1.90;74.30
64817;DHT22;69411;45.656;11.740;2024-01-30T00:39:17;1.90;74.20
64817;DHT22;69411;45.656;11.740;2024-01-30T00:41:45;2.00;74.10
64817;DHT22;69411;45.656;11.740;2024-01-30T00:44:11;2.00;73.90
64817;DHT22;69411;45.656;11.740;2024-01-30T00:46:37;2.00;74.10
64817;DHT22;69411;45.656;11.740;2024-01-30T00:49:03;2.00;74.20
64817;DHT22;69411;45.656;11.740;2024-01-30T00:51:29;2.00;74.20
64817;DHT22;69411;45.656;11.740;2024-01-30T00:53:55;2.00;74.60
64817;DHT22;69411;45.656;11.740;2024-01-30T00:56:21;2.00;74.30
64817;DHT22;69411;45.656;11.740;2024-01-30T00:58:47;2.00;74.10
64817;DHT22;69411;45.656;11.740;2024-01-30T01:01:13;2.00;74.10
64817;DHT22;69411;45.656;11.740;2024-01-30T01:03:40;2.00;73.90
64817;DHT22;69411;45.656;11.740;2024-01-30T01:06:09;2.00;73.80
64817;DHT22;69411;45.656;11.740;2024-01-30T01:08:35;1.90;74.00
64817;DHT22;69411;45.656;11.740;2024-01-30T01:11:02;2.00;73.90
64817;DHT22;69411;45.656;11.740;2024-01-30T01:13:29;2.00;73.90
64817;DHT22;69411;45.656;11.740;2024-01-30T01:15:55;1.90;73.60
64817;DHT22;69411;45.656;11.740;2024-01-30T01:18:21;1.90;74.00
64817;DHT22;69411;45.656;11.740;2024-01-30T01:20:46;1.90;74.00
64817;DHT22;69411;45.656;11.740;2024-01-30T01:23:13;1.90;73.70
64817;DHT22;69411;45.656;11.740;2024-01-30T01:25:38;1.90;73.90
64817;DHT22;69411;45.656;11.740;2024-01-30T01:28:04;1.90;74.00
64817;DHT22;69411;45.656;11.740;2024-01-30T01:30:30;1.90;74.00
64817;DHT22;69411;45.656;11.740;2024-01-30T01:32:56;1.90;73.70
64817;DHT22;69411;45.656;11.740;2024-01-30T01:35:26;1.80;74.00
64817;DHT22;69411;45.656;11.740;2024-01-30T01:37:53;1.90;74.30
64817;DHT22;69411;45.656;11.740;2024-01-30T01:40:25;1.90;74.40
64817;DHT22;69411;45.656;11.740;2024-01-30T01:42:52;1.90;74.20
64817;DHT22;69411;45.656;11.740;2024-01-30T01:45:19;1.90;74.50
64817;DHT22;69411;45.656;11.740;2024-01-30T01:47:48;1.80;74.00
64817;DHT22;69411;45.656;11.740;2024-01-30T01:50:16;1.90;73.80
64817;DHT22;69411;45.656;11.740;2024-01-30T01:52:44;1.80;73.90
64817;DHT22;69411;45.656;11.740;2024-01-30T01:55:13;1.90;74.10
64817;DHT22;69411;45.656;11.740;2024-01-30T01:57:41;1.80;74.00
64817;DHT22;69411;45.656;11.740;2024-01-30T02:00:08;1.90;73.90
64817;DHT22;69411;45.656;11.740;2024-01-30T02:02:36;1.90;73.90
64817;DHT22;69411;45.656;11.740;2024-01-30T02:05:03;1.90;74.00
64817;DHT22;69411;45.656;11.740;2024-01-30T02:07:29;1.90;74.30
64817;DHT22;69411;45.656;11.740;2024-01-30T02:09:55;1.90;74.20
64817;DHT22;69411;45.656;11.740;2024-01-30T02:12:21;1.90;74.20
64817;DHT22;69411;45.656;11.740;2024-01-30T02:14:48;1.90;74.30
64817;DHT22;69411;45.656;11.740;2024-01-30T02:17:16;1.90;74.20
64817;DHT22;69411;45.656;11.740;2024-01-30T02:19:42;1.90;74.20
64817;DHT22;69411;45.656;11.740;2024-01-30T02:22:08;1.80;74.30
64817;DHT22;69411;45.656;11.740;2024-01-30T02:24:35;1.80;74.40
64817;DHT22;69411;45.656;11.740;2024-01-30T02:27:00;1.80;74.50
64817;DHT22;69411;45.656;11.740;2024-01-30T02:29:27;1.80;74.50
64817;DHT22;69411;45.656;11.740;2024-01-30T02:31:52;1.80;74.30
64817;DHT22;69411;45.656;11.740;2024-01-30T02:34:19;1.70;74.60
64817;DHT22;69411;45.656;11.740;2024-01-30T02:36:45;1.70;74.70
64817;DHT22;69411;45.656;11.740;2024-01-30T02:39:11;1.70;75.10
64817;DHT22;69411;45.656;11.740;2024-01-30T02:41:37;1.70;75.10
64817;DHT22;69411;45.656;11.740;2024-01-30T02:44:04;1.70;75.30
64817;DHT22;69411;45.656;11.740;2024-01-30T02:46:30;1.60;75.20
64817;DHT22;69411;45.656;11.740;2024-01-30T02:48:56;1.60;75.30
64817;DHT22;69411;45.656;11.740;2024-01-30T02:51:21;1.70;75.10
64817;DHT22;69411;45.656;11.740;2024-01-30T02:53:47;1.60;75.40
64817;DHT22;69411;45.656;11.740;2024-01-30T02:56:14;1.60;75.00
64817;DHT22;69411;45.656;11.740;2024-01-30T02:58:40;1.60;75.00
64817;DHT22;69411;45.656;11.740;2024-01-30T03:01:07;1.60;74.80
64817;DHT22;69411;45.656;11.740;2024-01-30T03:03:33;1.60;75.00
64817;DHT22;69411;45.656;11.740;2024-01-30T03:06:00;1.60;74.90
64817;DHT22;69411;45.656;11.740;2024-01-30T03:08:27;1.50;75.00
64817;DHT22;69411;45.656;11.740;2024-01-30T03:10:53;1.50;75.10
64817;DHT22;69411;45.656;11.740;2024-01-30T03:13:19;1.50;75.20
64817;DHT22;69411;45.656;11.740;2024-01-30T03:15:45;1.50;75.20
64817;DHT22;69411;45.656;11.740;2024-01-30T03:18:11;1.50;75.00
64817;DHT22;69411;45.656;11.740;2024-01-30T03:20:37;1.50;75.00
64817;DHT22;69411;45.656;11.740;2024-01-30T03:23:03;1.50;75.10
64817;DHT22;69411;45.656;11.740;2024-01-30T03:25:29;1.50;75.10
64817;DHT22;69411;45.656;11.740;2024-01-30T03:27:55;1.50;75.20
64817;DHT22;69411;45.656;11.740;2024-01-30T03:30:21;1.50;75.00
64817;DHT22;69411;45.656;11.740;2024-01-30T03:32:47;1.50;75.20
64817;DHT22;69411;45.656;11.740;2024-01-30T03:35:13;1.50;75.10
64817;DHT22;69411;45.656;11.740;2024-01-30T03:37:39;1.50;75.10
64817;DHT22;69411;45.656;11.740;2024-01-30T03:40:05;1.50;74.80
64817;DHT22;69411;45.656;11.740;2024-01-30T03:42:31;1.50;75.00
64817;DHT22;69411;45.656;11.740;2024-01-30T03:44:57;1.40;75.00
64817;DHT22;69411;45.656;11.740;2024-01-30T03:47:23;1.40;75.00
64817;DHT22;69411;45.656;11.740;2024-01-30T03:49:49;1.50;75.00
64817;DHT22;69411;45.656;11.740;2024-01-30T03:52:15;1.50;74.80
64817;DHT22;69411;45.656;11.740;2024-01-30T03:54:41;1.50;75.10
64817;DHT22;69411;45.656;11.740;2024-01-30T03:57:07;1.50;75.50
64817;DHT22;69411;45.656;11.740;2024-01-30T03:59:32;1.50;75.00
64817;DHT22;69411;45.656;11.740;2024-01-30T04:01:59;1.40;74.60
64817;DHT22;69411;45.656;11.740;2024-01-30T04:04:25;1.40;74.50
64817;DHT22;69411;45.656;11.740;2024-01-30T04:06:51;1.40;74.80
64817;DHT22;69411;45.656;11.740;2024-01-30T04:09:17;1.40;74.80
64817;DHT22;69411;45.656;11.740;2024-01-30T04:11:43;1.40;74.90
64817;DHT22;69411;45.656;11.740;2024-01-30T04:14:10;1.40;75.10
64817;DHT22;69411;45.656;11.740;2024-01-30T04:16:36;1.40;74.90
64817;DHT22;69411;45.656;11.740;2024-01-30T04:19:02;1.40;74.50
64817;DHT22;69411;45.656;11.740;2024-01-30T04:21:28;1.40;74.30
64817;DHT22;69411;45.656;11.740;2024-01-30T04:23:53;1.40;74.50
64817;DHT22;69411;45.656;11.740;2024-01-30T04:26:19;1.40;74.70
64817;DHT22;69411;45.656;11.740;2024-01-30T04:28:45;1.30;74.70
64817;DHT22;69411;45.656;11.740;2024-01-30T04:31:12;1.40;74.90
64817;DHT22;69411;45.656;11.740;2024-01-30T04:33:38;1.30;75.00
64817;DHT22;69411;45.656;11.740;2024-01-30T04:36:07;1.30;75.00
64817;DHT22;69411;45.656;11.740;2024-01-30T04:38:34;1.40;75.10
64817;DHT22;69411;45.656;11.740;2024-01-30T04:41:00;1.40;75.10
64817;DHT22;69411;45.656;11.740;2024-01-30T04:43:26;1.40;75.20
64817;DHT22;69411;45.656;11.740;2024-01-30T04:45:53;1.40;74.90
64817;DHT22;69411;45.656;11.740;2024-01-30T04:48:18;1.40;74.90
64817;DHT22;69411;45.656;11.740;2024-01-30T04:50:44;1.40;74.90
64817;DHT22;69411;45.656;11.740;2024-01-30T04:53:10;1.40;75.00
64817;DHT22;69411;45.656;11.740;2024-01-30T04:55:36;1.40;75.10
64817;DHT22;69411;45.656;11.740;2024-01-30T04:58:02;1.40;75.00
64817;DHT22;69411;45.656;11.740;2024-01-30T05:00:28;1.40;75.00
64817;DHT22;69411;45.656;11.740;2024-01-30T05:02:56;1.40;74.90
64817;DHT22;69411;45.656;11.740;2024-01-30T05:05:22;1.40;74.80
64817;DHT22;69411;45.656;11.740;2024-01-30T05:07:48;1.40;74.30
64817;DHT22;69411;45.656;11.740;2024-01-30T05:10:14;1.40;74.50
64817;DHT22;69411;45.656;11.740;2024-01-30T05:12:40;1.40;74.60
64817;DHT22;69411;45.656;11.740;2024-01-30T05:15:06;1.30;74.70
64817;DHT22;69411;45.656;11.740;2024-01-30T05:17:32;1.30;74.40
64817;DHT22;69411;45.656;11.740;2024-01-30T05:19:59;1.30;74.50
64817;DHT22;69411;45.656;11.740;2024-01-30T05:22:24;1.30;74.60
64817;DHT22;69411;45.656;11.740;2024-01-30T05:24:50;1.30;74.70
64817;DHT22;69411;45.656;11.740;2024-01-30T05:27:16;1.30;74.60
64817;DHT22;69411;45.656;11.740;2024-01-30T05:29:43;1.30;74.60
64817;DHT22;69411;45.656;11.740;2024-01-30T05:32:09;1.30;74.70
64817;DHT22;69411;45.656;11.740;2024-01-30T05:34:35;1.30;74.90
64817;DHT22;69411;45.656;11.740;2024-01-30T05:37:01;1.40;74.80
64817;DHT22;69411;45.656;11.740;2024-01-30T05:39:27;1.30;74.60
64817;DHT22;69411;45.656;11.740;2024-01-30T05:41:53;1.30;74.10
64817;DHT22;69411;45.656;11.740;2024-01-30T05:44:19;1.20;74.00
64817;DHT22;69411;45.656;11.740;2024-01-30T05:46:45;1.20;74.30
64817;DHT22;69411;45.656;11.740;2024-01-30T05:49:11;1.20;74.40
64817;DHT22;69411;45.656;11.740;2024-01-30T05:51:36;1.20;74.40
64817;DHT22;69411;45.656;11.740;2024-01-30T05:54:03;1.20;74.80
64817;DHT22;69411;45.656;11.740;2024-01-30T05:56:30;1.20;74.70
64817;DHT22;69411;45.656;11.740;2024-01-30T05:58:55;1.20;75.10
64817;DHT22;69411;45.656;11.740;2024-01-30T06:01:21;1.20;74.90
64817;DHT22;69411;45.656;11.740;2024-01-30T06:03:47;1.20;74.80
64817;DHT22;69411;45.656;11.740;2024-01-30T06:06:13;1.20;75.10
64817;DHT22;69411;45.656;11.740;2024-01-30T06:08:39;1.20;75.30
64817;DHT22;69411;45.656;11.740;2024-01-30T06:11:05;1.20;75.60
64817;DHT22;69411;45.656;11.740;2024-01-30T06:13:31;1.20;75.20
64817;DHT22;69411;45.656;11.740;2024-01-30T06:15:58;1.20;74.70
64817;DHT22;69411;45.656;11.740;2024-01-30T06:18:24;1.20;75.00
64817;DHT22;69411;45.656;11.740;2024-01-30T06:20:52;1.20;75.00
64817;DHT22;69411;45.656;11.740;2024-01-30T06:23:18;1.10;74.70
64817;DHT22;69411;45.656;11.740;2024-01-30T06:25:44;1.20;75.00
64817;DHT22;69411;45.656;11.740;2024-01-30T06:28:10;1.20;74.20
64817;DHT22;69411;45.656;11.740;2024-01-30T06:30:36;1.10;73.80
64817;DHT22;69411;45.656;11.740;2024-01-30T06:33:02;1.10;73.70
64817;DHT22;69411;45.656;11.740;2024-01-30T06:35:28;1.10;73.80
64817;DHT22;69411;45.656;11.740;2024-01-30T06:37:54;1.10;73.70
64817;DHT22;69411;45.656;11.740;2024-01-30T06:40:20;1.10;73.70
64817;DHT22;69411;45.656;11.740;2024-01-30T06:42:46;1.10;73.60
64817;DHT22;69411;45.656;11.740;2024-01-30T06:45:12;1.10;73.50
64817;DHT22;69411;45.656;11.740;2024-01-30T06:47:38;1.00;73.60
64817;DHT22;69411;45.656;11.740;2024-01-30T06:50:05;1.10;73.60
64817;DHT22;69411;45.656;11.740;2024-01-30T06:52:31;1.00;73.70
64817;DHT22;69411;45.656;11.740;2024-01-30T06:54:57;1.10;74.70
64817;DHT22;69411;45.656;11.740;2024-01-30T06:57:22;1.20;75.80
64817;DHT22;69411;45.656;11.740;2024-01-30T06:59:48;1.20;76.30
64817;DHT22;69411;45.656;11.740;2024-01-30T07:02:14;1.20;75.90
64817;DHT22;69411;45.656;11.740;2024-01-30T07:04:40;1.30;75.70
64817;DHT22;69411;45.656;11.740;2024-01-30T07:07:07;1.30;75.80
64817;DHT22;69411;45.656;11.740;2024-01-30T07:09:38;1.30;75.80
64817;DHT22;69411;45.656;11.740;2024-01-30T07:12:05;1.40;75.80
64817;DHT22;69411;45.656;11.740;2024-01-30T07:14:31;1.40;76.30
64817;DHT22;69411;45.656;11.740;2024-01-30T07:16:57;1.40;75.90
64817;DHT22;69411;45.656;11.740;2024-01-30T07:19:23;1.50;76.10
64817;DHT22;69411;45.656;11.740;2024-01-30T07:21:49;1.60;76.20
64817;DHT22;69411;45.656;11.740;2024-01-30T07:24:15;1.60;76.10
64817;DHT22;69411;45.656;11.740;2024-01-30T07:26:41;1.60;75.90
64817;DHT22;69411;45.656;11.740;2024-01-30T07:29:07;1.70;76.00
64817;DHT22;69411;45.656;11.740;2024-01-30T07:31:33;1.80;76.30
64817;DHT22;69411;45.656;11.740;2024-01-30T07:33:58;1.90;76.30
64817;DHT22;69411;45.656;11.740;2024-01-30T07:36:25;2.00;76.50
64817;DHT22;69411;45.656;11.740;2024-01-30T07:38:52;2.30;76.40
64817;DHT22;69411;45.656;11.740;2024-01-30T07:41:20;2.40;76.40
64817;DHT22;69411;45.656;11.740;2024-01-30T07:43:46;2.60;76.30
64817;DHT22;69411;45.656;11.740;2024-01-30T07:46:12;2.70;76.40
64817;DHT22;69411;45.656;11.740;2024-01-30T07:48:38;2.90;76.50
64817;DHT22;69411;45.656;11.740;2024-01-30T07:51:04;2.90;76.40
64817;DHT22;69411;45.656;11.740;2024-01-30T07:53:30;3.10;76.60
64817;DHT22;69411;45.656;11.740;2024-01-30T07:55:56;3.20;76.60
64817;DHT22;69411;45.656;11.740;2024-01-30T07:58:21;3.40;76.20
64817;DHT22;69411;45.656;11.740;2024-01-30T08:00:49;3.50;76.10
64817;DHT22;69411;45.656;11.740;2024-01-30T08:03:17;3.70;76.40
64817;DHT22;69411;45.656;11.740;2024-01-30T08:05:44;3.80;76.20
64817;DHT22;69411;45.656;11.740;2024-01-30T08:08:10;4.00;76.80
64817;DHT22;69411;45.656;11.740;2024-01-30T08:10:36;4.20;76.10
64817;DHT22;69411;45.656;11.740;2024-01-30T08:13:02;4.30;76.20
64817;DHT22;69411;45.656;11.740;2024-01-30T08:15:28;4.40;75.90
64817;DHT22;69411;45.656;11.740;2024-01-30T08:17:54;4.60;76.00
64817;DHT22;69411;45.656;11.740;2024-01-30T08:20:24;4.60;75.70
64817;DHT22;69411;45.656;11.740;2024-01-30T08:22:50;4.70;75.20
64817;DHT22;69411;45.656;11.740;2024-01-30T08:25:16;4.80;75.50
64817;DHT22;69411;45.656;11.740;2024-01-30T08:27:42;4.80;75.20
64817;DHT22;69411;45.656;11.740;2024-01-30T08:30:09;5.00;75.60
64817;DHT22;69411;45.656;11.740;2024-01-30T08:32:35;5.10;75.60
64817;DHT22;69411;45.656;11.740;2024-01-30T08:35:01;5.20;74.60
64817;DHT22;69411;45.656;11.740;2024-01-30T08:37:30;5.30;74.20
64817;DHT22;69411;45.656;11.740;2024-01-30T08:39:56;5.40;74.40
64817;DHT22;69411;45.656;11.740;2024-01-30T08:42:22;5.50;73.80
64817;DHT22;69411;45.656;11.740;2024-01-30T08:44:49;5.60;74.10
64817;DHT22;69411;45.656;11.740;2024-01-30T08:47:17;5.60;73.80
64817;DHT22;69411;45.656;11.740;2024-01-30T08:49:44;5.70;73.30
64817;DHT22;69411;45.656;11.740;2024-01-30T08:52:13;5.80;73.80
64817;DHT22;69411;45.656;11.740;2024-01-30T08:54:39;5.90;73.00
64817;DHT22;69411;45.656;11.740;2024-01-30T08:57:05;5.90;73.20
64817;DHT22;69411;45.656;11.740;2024-01-30T08:59:31;5.90;73.40
64817;DHT22;69411;45.656;11.740;2024-01-30T09:01:57;6.00;73.00
64817;DHT22;69411;45.656;11.740;2024-01-30T09:04:25;6.00;72.10
64817;DHT22;69411;45.656;11.740;2024-01-30T09:06:51;6.10;72.70
64817;DHT22;69411;45.656;11.740;2024-01-30T09:09:17;6.20;72.60
64817;DHT22;69411;45.656;11.740;2024-01-30T09:11:44;6.30;72.60
64817;DHT22;69411;45.656;11.740;2024-01-30T09:14:10;6.40;72.60
64817;DHT22;69411;45.656;11.740;2024-01-30T09:16:36;6.50;71.60
64817;DHT22;69411;45.656;11.740;2024-01-30T09:19:02;6.60;71.70
64817;DHT22;69411;45.656;11.740;2024-01-30T09:21:28;6.60;72.10
64817;DHT22;69411;45.656;11.740;2024-01-30T09:23:54;6.80;72.30
64817;DHT22;69411;45.656;11.740;2024-01-30T09:26:27;6.90;72.00
64817;DHT22;69411;45.656;11.740;2024-01-30T09:28:53;6.90;72.40
64817;DHT22;69411;45.656;11.740;2024-01-30T09:31:19;7.10;72.10
64817;DHT22;69411;45.656;11.740;2024-01-30T09:33:44;7.20;71.80
64817;DHT22;69411;45.656;11.740;2024-01-30T09:36:13;7.30;71.50
64817;DHT22;69411;45.656;11.740;2024-01-30T09:38:41;7.40;71.40
64817;DHT22;69411;45.656;11.740;2024-01-30T09:41:09;7.50;71.40
64817;DHT22;69411;45.656;11.740;2024-01-30T09:43:38;7.60;70.10
64817;DHT22;69411;45.656;11.740;2024-01-30T09:46:05;7.70;69.00
64817;DHT22;69411;45.656;11.740;2024-01-30T09:48:34;7.70;69.40
64817;DHT22;69411;45.656;11.740;2024-01-30T09:51:00;7.80;68.80
64817;DHT22;69411;45.656;11.740;2024-01-30T09:53:27;7.90;68.90
64817;DHT22;69411;45.656;11.740;2024-01-30T09:55:53;7.90;68.50
64817;DHT22;69411;45.656;11.740;2024-01-30T09:58:19;7.90;68.50
64817;DHT22;69411;45.656;11.740;2024-01-30T10:00:45;8.00;68.60
64817;DHT22;69411;45.656;11.740;2024-01-30T10:03:13;8.20;68.20
64817;DHT22;69411;45.656;11.740;2024-01-30T10:05:41;8.20;67.90
64817;DHT22;69411;45.656;11.740;2024-01-30T10:08:07;8.30;68.30
64817;DHT22;69411;45.656;11.740;2024-01-30T10:10:36;8.40;68.50
64817;DHT22;69411;45.656;11.740;2024-01-30T10:13:02;8.50;67.80
64817;DHT22;69411;45.656;11.740;2024-01-30T10:15:28;8.60;67.50
64817;DHT22;69411;45.656;11.740;2024-01-30T10:17:54;8.70;68.00
64817;DHT22;69411;45.656;11.740;2024-01-30T10:20:20;8.80;68.00
64817;DHT22;69411;45.656;11.740;2024-01-30T10:22:48;8.80;67.70
64817;DHT22;69411;45.656;11.740;2024-01-30T10:25:15;8.90;66.70
64817;DHT22;69411;45.656;11.740;2024-01-30T10:27:42;8.90;66.30
64817;DHT22;69411;45.656;11.740;2024-01-30T10:30:08;9.00;67.10
64817;DHT22;69411;45.656;11.740;2024-01-30T10:32:35;9.10;65.90
64817;DHT22;69411;45.656;11.740;2024-01-30T10:35:01;9.20;66.40
64817;DHT22;69411;45.656;11.740;2024-01-30T10:37:28;9.20;65.90
64817;DHT22;69411;45.656;11.740;2024-01-30T10:40:02;9.40;66.20
64817;DHT22;69411;45.656;11.740;2024-01-30T10:42:32;9.40;65.80
64817;DHT22;69411;45.656;11.740;2024-01-30T10:45:07;9.50;64.30
64817;DHT22;69411;45.656;11.740;2024-01-30T10:47:58;9.50;64.50
64817;DHT22;69411;45.656;11.740;2024-01-30T10:50:25;9.70;63.50
64817;DHT22;69411;45.656;11.740;2024-01-30T10:52:53;9.70;63.90
64817;DHT22;69411;45.656;11.740;2024-01-30T10:55:22;9.70;64.00
64817;DHT22;69411;45.656;11.740;2024-01-30T10:57:49;9.80;64.40
64817;DHT22;69411;45.656;11.740;2024-01-30T11:00:16;9.90;61.20
64817;DHT22;69411;45.656;11.740;2024-01-30T11:02:46;9.90;61.50
64817;DHT22;69411;45.656;11.740;2024-01-30T11:05:13;9.90;62.00
64817;DHT22;69411;45.656;11.740;2024-01-30T11:07:41;9.90;61.50
64817;DHT22;69411;45.656;11.740;2024-01-30T11:10:07;10.00;62.10
64817;DHT22;69411;45.656;11.740;2024-01-30T11:12:39;10.10;61.00
64817;DHT22;69411;45.656;11.740;2024-01-30T11:15:08;10.20;62.00
64817;DHT22;69411;45.656;11.740;2024-01-30T11:20:27;10.30;61.70
64817;DHT22;69411;45.656;11.740;2024-01-30T11:22:54;10.40;62.10
64817;DHT22;69411;45.656;11.740;2024-01-30T11:25:22;10.50;61.10
64817;DHT22;69411;45.656;11.740;2024-01-30T11:27:55;10.60;61.60
64817;DHT22;69411;45.656;11.740;2024-01-30T11:30:28;10.60;61.60
64817;DHT22;69411;45.656;11.740;2024-01-30T11:33:07;10.70;61.00
64817;DHT22;69411;45.656;11.740;2024-01-30T11:35:44;10.80;60.90
64817;DHT22;69411;45.656;11.740;2024-01-30T11:38:11;10.90;60.00
64817;DHT22;69411;45.656;11.740;2024-01-30T11:40:39;10.90;60.30
64817;DHT22;69411;45.656;11.740;2024-01-30T11:43:07;11.00;59.90
64817;DHT22;69411;45.656;11.740;2024-01-30T11:45:34;11.10;59.50
64817;DHT22;69411;45.656;11.740;2024-01-30T11:48:00;11.10;59.90
64817;DHT22;69411;45.656;11.740;2024-01-30T11:50:38;11.20;59.40
64817;DHT22;69411;45.656;11.740;2024-01-30T11:53:05;11.30;60.00
64817;DHT22;69411;45.656;11.740;2024-01-30T11:55:32;11.30;57.60
64817;DHT22;69411;45.656;11.740;2024-01-30T11:57:58;11.40;57.50
64817;DHT22;69411;45.656;11.740;2024-01-30T12:00:25;11.40;58.00
64817;DHT22;69411;45.656;11.740;2024-01-30T12:02:53;11.40;58.70
64817;DHT22;69411;45.656;11.740;2024-01-30T12:05:22;11.50;58.40
64817;DHT22;69411;45.656;11.740;2024-01-30T12:07:48;11.60;58.90
64817;DHT22;69411;45.656;11.740;2024-01-30T12:10:15;11.70;57.80
64817;DHT22;69411;45.656;11.740;2024-01-30T12:12:43;11.70;58.80
64817;DHT22;69411;45.656;11.740;2024-01-30T12:15:10;11.80;58.60
64817;DHT22;69411;45.656;11.740;2024-01-30T12:17:36;11.90;58.50
64817;DHT22;69411;45.656;11.740;2024-01-30T12:22:41;11.90;57.70
64817;DHT22;69411;45.656;11.740;2024-01-30T12:25:11;11.90;57.90
64817;DHT22;69411;45.656;11.740;2024-01-30T12:27:48;11.90;57.30
64817;DHT22;69411;45.656;11.740;2024-01-30T12:30:19;11.90;58.00
64817;DHT22;69411;45.656;11.740;2024-01-30T12:32:48;11.90;56.90
64817;DHT22;69411;45.656;11.740;2024-01-30T12:35:16;11.90;56.90
64817;DHT22;69411;45.656;11.740;2024-01-30T12:37:47;11.90;56.50
64817;DHT22;69411;45.656;11.740;2024-01-30T12:40:16;11.90;56.70
64817;DHT22;69411;45.656;11.740;2024-01-30T12:42:43;11.90;57.00
64817;DHT22;69411;45.656;11.740;2024-01-30T12:45:13;12.00;56.80
64817;DHT22;69411;45.656;11.740;2024-01-30T12:47:39;12.00;56.90
64817;DHT22;69411;45.656;11.740;2024-01-30T12:50:06;12.00;57.10
64817;DHT22;69411;45.656;11.740;2024-01-30T12:52:32;12.00;56.10
64817;DHT22;69411;45.656;11.740;2024-01-30T12:54:58;12.00;57.00
64817;DHT22;69411;45.656;11.740;2024-01-30T12:57:24;12.10;57.20
64817;DHT22;69411;45.656;11.740;2024-01-30T12:59:50;12.10;55.90
64817;DHT22;69411;45.656;11.740;2024-01-30T13:02:16;12.10;57.30
64817;DHT22;69411;45.656;11.740;2024-01-30T13:04:42;12.10;56.20
64817;DHT22;69411;45.656;11.740;2024-01-30T13:07:08;12.10;55.00
64817;DHT22;69411;45.656;11.740;2024-01-30T13:09:34;12.10;54.60
64817;DHT22;69411;45.656;11.740;2024-01-30T13:12:00;12.00;52.60
64817;DHT22;69411;45.656;11.740;2024-01-30T13:14:27;12.10;54.80
64817;DHT22;69411;45.656;11.740;2024-01-30T13:16:53;12.10;55.60
64817;DHT22;69411;45.656;11.740;2024-01-30T13:19:19;12.10;54.10
64817;DHT22;69411;45.656;11.740;2024-01-30T13:21:45;12.10;54.60
64817;DHT22;69411;45.656;11.740;2024-01-30T13:24:11;12.20;53.30
64817;DHT22;69411;45.656;11.740;2024-01-30T13:26:38;12.10;53.40
64817;DHT22;69411;45.656;11.740;2024-01-30T13:29:05;12.20;52.70
64817;DHT22;69411;45.656;11.740;2024-01-30T13:31:30;12.20;52.90
64817;DHT22;69411;45.656;11.740;2024-01-30T13:33:56;12.20;53.90
64817;DHT22;69411;45.656;11.740;2024-01-30T13:36:22;12.20;54.80
64817;DHT22;69411;45.656;11.740;2024-01-30T13:38:48;12.20;53.30
64817;DHT22;69411;45.656;11.740;2024-01-30T13:41:14;12.20;54.60
64817;DHT22;69411;45.656;11.740;2024-01-30T13:43:43;12.20;55.20
64817;DHT22;69411;45.656;11.740;2024-01-30T13:46:09;12.20;55.40
64817;DHT22;69411;45.656;11.740;2024-01-30T13:48:35;12.20;55.80
64817;DHT22;69411;45.656;11.740;2024-01-30T13:51:01;12.20;56.30
64817;DHT22;69411;45.656;11.740;2024-01-30T13:53:27;12.20;55.40
64817;DHT22;69411;45.656;11.740;2024-01-30T13:55:53;12.20;56.50
64817;DHT22;69411;45.656;11.740;2024-01-30T13:58:19;12.20;57.10
64817;DHT22;69411;45.656;11.740;2024-01-30T14:00:45;12.20;57.10
64817;DHT22;69411;45.656;11.740;2024-01-30T14:03:11;12.20;57.40
64817;DHT22;69411;45.656;11.740;2024-01-30T14:05:37;12.30;57.50
64817;DHT22;69411;45.656;11.740;2024-01-30T14:08:03;12.30;57.60
64817;DHT22;69411;45.656;11.740;2024-01-30T14:10:29;12.20;58.00
64817;DHT22;69411;45.656;11.740;2024-01-30T14:12:56;12.20;58.30
64817;DHT22;69411;45.656;11.740;2024-01-30T14:15:22;12.20;57.90
64817;DHT22;69411;45.656;11.740;2024-01-30T14:17:48;12.20;57.80
64817;DHT22;69411;45.656;11.740;2024-01-30T14:20:15;12.10;57.30
64817;DHT22;69411;45.656;11.740;2024-01-30T14:22:45;12.10;57.30
64817;DHT22;69411;45.656;11.740;2024-01-30T14:25:11;12.10;57.20
64817;DHT22;69411;45.656;11.740;2024-01-30T14:27:38;12.00;57.70
64817;DHT22;69411;45.656;11.740;2024-01-30T14:30:04;12.00;57.90
64817;DHT22;69411;45.656;11.740;2024-01-30T14:32:30;12.00;57.80
64817;DHT22;69411;45.656;11.740;2024-01-30T14:34:56;12.00;58.00
64817;DHT22;69411;45.656;11.740;2024-01-30T14:37:22;12.00;58.20
64817;DHT22;69411;45.656;11.740;2024-01-30T14:39:49;11.90;58.00
64817;DHT22;69411;45.656;11.740;2024-01-30T14:42:15;11.90;58.00
64817;DHT22;69411;45.656;11.740;2024-01-30T14:44:42;11.90;58.00
64817;DHT22;69411;45.656;11.740;2024-01-30T14:47:08;11.90;58.20
64817;DHT22;69411;45.656;11.740;2024-01-30T14:49:34;11.80;58.20
64817;DHT22;69411;45.656;11.740;2024-01-30T14:52:00;11.70;58.10
64817;DHT22;69411;45.656;11.740;2024-01-30T14:54:27;11.70;58.40
64817;DHT22;69411;45.656;11.740;2024-01-30T14:56:53;11.70;58.40
64817;DHT22;69411;45.656;11.740;2024-01-30T14:59:19;11.60;58.60
64817;DHT22;69411;45.656;11.740;2024-01-30T15:01:46;11.60;58.50
64817;DHT22;69411;45.656;11.740;2024-01-30T15:04:12;11.60;58.30
64817;DHT22;69411;45.656;11.740;2024-01-30T15:06:38;11.50;58.70
64817;DHT22;69411;45.656;11.740;2024-01-30T15:09:08;11.50;58.60
64817;DHT22;69411;45.656;11.740;2024-01-30T15:11:34;11.50;58.70
64817;DHT22;69411;45.656;11.740;2024-01-30T15:14:01;11.40;58.90
64817;DHT22;69411;45.656;11.740;2024-01-30T15:16:27;11.40;58.90
64817;DHT22;69411;45.656;11.740;2024-01-30T15:18:54;11.40;59.00
64817;DHT22;69411;45.656;11.740;2024-01-30T15:21:20;11.40;58.50
64817;DHT22;69411;45.656;11.740;2024-01-30T15:23:48;11.40;58.50
64817;DHT22;69411;45.656;11.740;2024-01-30T15:26:14;11.30;58.70
64817;DHT22;69411;45.656;11.740;2024-01-30T15:28:40;11.30;58.70